Terminal Aerodrome Forecast
Issued by NWS

Home | Current Version | Previous Version | Text Only | Print | Product List | Glossary On
Versions: 1 2 3 4 5 6 7 8 9 10 11 12 13 14
000
FTUS44 KEPZ 271700
TAFLRU
TAF
KLRU 271720Z 2718/2818 VRB04KT P6SM SCT040 SCT200
      TEMPO 2718/2719 BKN025
     FM272100 25006KT P6SM VCTS SCT050CB BKN200
     FM280200 VRB05KT P6SM SCT080 BKN150
     FM281000 34005KT P6SM FEW080=

USA.gov is the U.S. government's official web portal to all federal, state and local government web resources and services.